Terminal Aerodrome Forecast
Issued by NWS

Home | Current Version | Previous Version | Text Only | Print | Product List | Glossary Off
Versions: 1 2 3 4 5 6 7 8 9 10 11 12 13 14 15 16 17 18 19 20

000
FTUS43 KMPX 222332
TAFRWF
TAF
KRWF 222332Z 2300/2324 30008KT 4SM BR OVC005
     FM230200 29006KT 2SM BR OVC004
      TEMPO 2304/2308 3/4SM BR OVC002
     FM230800 29005KT 2SM BR OVC003
     FM231400 27004KT 4SM BR OVC009
     FM231700 VRB03KT P6SM OVC015=

USA.gov is the U.S. government's official web portal to all federal, state and local government web resources and services.